createdAt,value
2022-11-28T00:00:06.982Z,6.05
2022-11-28T00:02:39.851Z,6.28
2022-11-28T00:05:07.157Z,6.32
2022-11-28T00:07:34.424Z,6.68
2022-11-28T00:10:02.140Z,6.88
2022-11-28T00:12:29.492Z,5.95
2022-11-28T00:14:56.674Z,4.95
2022-11-28T00:17:24.219Z,5.75
2022-11-28T00:19:51.407Z,4.88
2022-11-28T00:22:18.728Z,6.20
2022-11-28T00:24:45.936Z,6.43
2022-11-28T00:27:13.184Z,6.22
2022-11-28T00:29:40.362Z,4.95
2022-11-28T00:32:07.648Z,4.93
2022-11-28T00:34:34.902Z,4.53
2022-11-28T00:37:02.171Z,4.55
2022-11-28T00:39:29.341Z,5.07
2022-11-28T00:41:56.592Z,4.78
2022-11-28T00:44:24.750Z,5.57
2022-11-28T00:46:51.901Z,5.18
2022-11-28T00:49:19.182Z,4.85
2022-11-28T00:51:46.309Z,4.05
2022-11-28T00:54:13.563Z,4.50
2022-11-28T00:56:40.807Z,4.78
2022-11-28T00:59:08.037Z,5.97
2022-11-28T01:01:35.238Z,7.95
2022-11-28T01:04:02.605Z,4.50
2022-11-28T01:06:29.775Z,5.30
2022-11-28T01:08:56.996Z,4.63
2022-11-28T01:11:24.250Z,5.15
2022-11-28T01:13:51.560Z,5.63
2022-11-28T01:16:18.828Z,4.57
2022-11-28T01:18:46.190Z,4.40
2022-11-28T01:21:13.431Z,5.45
2022-11-28T01:23:40.692Z,5.57
2022-11-28T01:26:07.994Z,5.22
2022-11-28T01:28:35.260Z,6.10
2022-11-28T01:31:02.468Z,5.10
2022-11-28T01:33:29.785Z,5.57
2022-11-28T01:35:57.002Z,5.03
2022-11-28T01:38:24.194Z,5.00
2022-11-28T01:40:51.438Z,6.80
2022-11-28T01:43:18.679Z,6.75
2022-11-28T01:45:45.828Z,5.18
2022-11-28T01:48:13.066Z,6.78
2022-11-28T01:50:40.257Z,5.72
2022-11-28T01:53:07.474Z,5.68
2022-11-28T01:55:34.712Z,5.57
2022-11-28T01:58:02.025Z,4.93
2022-11-28T02:00:29.221Z,4.53
2022-11-28T02:02:56.479Z,5.03
2022-11-28T02:05:23.657Z,7.30
2022-11-28T02:07:50.915Z,6.15
2022-11-28T02:10:18.125Z,6.55
2022-11-28T02:12:45.389Z,5.32
2022-11-28T02:15:12.594Z,6.68
2022-11-28T02:17:39.970Z,5.47
2022-11-28T02:20:07.251Z,6.30
2022-11-28T02:22:34.511Z,5.72
2022-11-28T02:25:01.742Z,6.57
2022-11-28T02:27:29.228Z,4.88
2022-11-28T02:29:56.449Z,8.32
2022-11-28T02:32:23.714Z,5.25
2022-11-28T02:34:51.130Z,6.68
2022-11-28T02:37:18.515Z,8.13
2022-11-28T02:39:45.877Z,5.78
2022-11-28T02:42:13.082Z,5.43
2022-11-28T02:44:40.584Z,5.53
2022-11-28T02:47:08.057Z,6.20
2022-11-28T02:49:35.348Z,6.18
2022-11-28T02:52:02.769Z,6.13
2022-11-28T02:54:31.716Z,5.25
2022-11-28T02:56:58.985Z,5.50
2022-11-28T02:59:26.341Z,5.20
2022-11-28T03:01:53.691Z,5.88
2022-11-28T03:04:21.008Z,4.90
2022-11-28T03:06:48.570Z,5.88
2022-11-28T03:09:15.957Z,5.53
2022-11-28T03:11:43.139Z,4.45
2022-11-28T03:14:10.373Z,4.60
2022-11-28T03:16:37.606Z,7.10
2022-11-28T03:19:04.985Z,5.13
2022-11-28T03:21:32.524Z,4.18
2022-11-28T03:24:00.014Z,4.25
2022-11-28T03:26:27.265Z,4.47
2022-11-28T03:28:54.579Z,4.75
2022-11-28T03:31:21.820Z,4.25
2022-11-28T03:33:49.061Z,6.45
2022-11-28T03:36:16.253Z,5.15
2022-11-28T03:38:43.513Z,3.88
2022-11-28T03:41:10.789Z,4.53
2022-11-28T03:43:38.013Z,4.60
2022-11-28T03:46:05.191Z,5.13
2022-11-28T03:48:32.468Z,4.70
2022-11-28T03:50:59.671Z,5.65
2022-11-28T03:53:26.927Z,4.90
2022-11-28T03:55:54.193Z,4.53
2022-11-28T03:58:21.442Z,4.13
2022-11-28T04:00:48.745Z,5.55
2022-11-28T04:03:16.129Z,5.03
2022-11-28T04:05:43.392Z,5.22
2022-11-28T04:08:10.631Z,6.93
2022-11-28T04:10:38.107Z,4.55
2022-11-28T04:13:05.338Z,5.90
2022-11-28T04:15:32.557Z,5.50
2022-11-28T04:17:59.831Z,6.13
2022-11-28T04:20:26.996Z,4.95
2022-11-28T04:22:54.246Z,5.25
2022-11-28T04:25:21.438Z,5.30
2022-11-28T04:27:53.491Z,5.45
2022-11-28T04:30:20.734Z,5.35
2022-11-28T04:32:47.931Z,5.85
2022-11-28T04:35:15.193Z,6.53
2022-11-28T04:37:42.497Z,7.10
2022-11-28T04:40:09.752Z,6.90
2022-11-28T04:42:36.953Z,5.43
2022-11-28T04:45:04.234Z,5.32
2022-11-28T04:47:31.503Z,6.28
2022-11-28T04:49:58.765Z,6.13
2022-11-28T04:52:26.056Z,7.00
2022-11-28T04:54:53.227Z,6.55
2022-11-28T04:57:20.490Z,5.60
2022-11-28T04:59:47.706Z,6.10
2022-11-28T05:02:15.009Z,5.00
2022-11-28T05:04:42.596Z,4.90
2022-11-28T05:07:10.025Z,4.57
2022-11-28T05:09:37.253Z,5.80
2022-11-28T05:12:04.468Z,5.65
2022-11-28T05:14:31.793Z,6.68
2022-11-28T05:16:59.048Z,5.97
2022-11-28T05:19:26.248Z,6.47
2022-11-28T05:21:53.636Z,4.85
2022-11-28T05:24:22.342Z,5.40
2022-11-28T05:26:49.779Z,6.93
2022-11-28T05:29:17.109Z,4.88
2022-11-28T05:31:44.410Z,6.32
2022-11-28T05:34:11.747Z,4.35
2022-11-28T05:36:38.962Z,4.35
2022-11-28T05:39:06.217Z,4.35
2022-11-28T05:41:33.402Z,5.03
2022-11-28T05:44:00.665Z,4.70
2022-11-28T05:46:27.889Z,4.60
2022-11-28T05:48:55.154Z,3.92
2022-11-28T05:51:22.368Z,4.13
2022-11-28T05:53:49.692Z,5.07
2022-11-28T05:56:16.859Z,4.35
2022-11-28T05:58:44.098Z,4.32
2022-11-28T06:01:11.456Z,4.60
2022-11-28T06:03:38.695Z,3.90
2022-11-28T06:06:05.910Z,3.78
2022-11-28T06:08:33.152Z,4.00
2022-11-28T06:11:00.548Z,4.10
2022-11-28T06:13:28.051Z,4.13
2022-11-28T06:15:55.224Z,3.28
2022-11-28T06:18:22.567Z,2.90
2022-11-28T06:20:49.765Z,4.03
2022-11-28T06:23:17.071Z,4.43
2022-11-28T06:25:44.219Z,3.33
2022-11-28T06:28:11.718Z,3.00
2022-11-28T06:30:38.893Z,4.45
2022-11-28T06:33:06.173Z,2.67
2022-11-28T06:35:33.524Z,4.45
2022-11-28T06:38:01.048Z,3.45
2022-11-28T06:40:28.234Z,3.85
2022-11-28T06:42:55.714Z,3.17
2022-11-28T06:45:22.970Z,5.13
2022-11-28T06:47:50.203Z,4.20
2022-11-28T06:50:17.375Z,2.80
2022-11-28T06:52:44.728Z,3.65
2022-11-28T06:55:12.065Z,4.07
2022-11-28T06:57:39.431Z,3.40
2022-11-28T07:00:06.609Z,3.30
2022-11-28T07:02:33.858Z,4.43
2022-11-28T07:05:01.094Z,3.35
2022-11-28T07:07:28.440Z,3.83
2022-11-28T07:09:55.683Z,2.78
2022-11-28T07:12:22.912Z,3.42
2022-11-28T07:14:50.161Z,3.30
2022-11-28T07:17:17.579Z,4.35
2022-11-28T07:19:47.280Z,3.72
2022-11-28T07:22:17.884Z,2.65
2022-11-28T07:24:45.083Z,4.05
2022-11-28T07:27:12.388Z,3.72
2022-11-28T07:29:39.624Z,4.35
2022-11-28T07:32:08.170Z,3.95
2022-11-28T07:34:35.416Z,3.53
2022-11-28T07:37:02.815Z,3.33
2022-11-28T07:39:30.043Z,3.35
2022-11-28T07:41:57.324Z,3.00
2022-11-28T07:44:24.527Z,3.95
2022-11-28T07:46:51.874Z,4.45
2022-11-28T07:49:19.072Z,5.35
2022-11-28T07:51:46.370Z,5.60
2022-11-28T07:54:13.649Z,4.47
2022-11-28T07:57:10.888Z,4.18
2022-11-28T07:59:28.239Z,4.07
2022-11-28T08:01:55.452Z,3.70
2022-11-28T08:04:23.032Z,5.25
2022-11-28T08:06:50.491Z,5.55
2022-11-28T08:09:17.772Z,3.58
2022-11-28T08:11:44.943Z,2.90
2022-11-28T08:14:12.247Z,3.75
2022-11-28T08:16:41.377Z,4.25
2022-11-28T08:19:08.793Z,3.70
2022-11-28T08:21:36.051Z,3.25
2022-11-28T08:24:03.403Z,4.47
2022-11-28T08:26:31.113Z,3.40
2022-11-28T08:28:58.540Z,4.03
2022-11-28T08:31:25.816Z,5.15
2022-11-28T08:33:53.135Z,4.30
2022-11-28T08:36:20.350Z,6.13
2022-11-28T08:39:03.373Z,5.50
2022-11-28T08:41:35.139Z,4.05
2022-11-28T08:44:02.419Z,6.40
2022-11-28T08:46:29.897Z,5.82
2022-11-28T08:48:57.179Z,4.88
2022-11-28T08:51:24.434Z,4.70
2022-11-28T08:53:54.923Z,4.57
2022-11-28T08:56:25.238Z,3.90
2022-11-28T08:58:52.448Z,4.43
2022-11-28T09:01:19.804Z,3.75
2022-11-28T09:03:47.313Z,4.20
2022-11-28T09:06:14.828Z,2.75
2022-11-28T09:08:42.081Z,5.07
2022-11-28T09:11:09.803Z,3.70
2022-11-28T09:13:36.987Z,4.53
2022-11-28T09:16:04.313Z,7.70
2022-11-28T09:18:31.542Z,5.85
2022-11-28T09:20:58.881Z,5.00
2022-11-28T09:23:26.204Z,4.72
2022-11-28T09:25:53.543Z,4.18
2022-11-28T09:28:20.740Z,4.10
2022-11-28T09:30:48.051Z,3.92
2022-11-28T09:33:15.364Z,3.35
2022-11-28T09:35:42.646Z,3.80
2022-11-28T09:38:09.811Z,3.60
2022-11-28T09:40:37.093Z,3.75
2022-11-28T09:43:04.282Z,3.55
2022-11-28T09:45:33.488Z,3.20
2022-11-28T09:48:00.718Z,2.90
2022-11-28T09:50:27.922Z,3.00
2022-11-28T09:52:55.218Z,4.10
2022-11-28T09:55:22.535Z,4.22
2022-11-28T09:57:49.762Z,3.28
2022-11-28T10:00:17.181Z,3.60
2022-11-28T10:02:44.507Z,2.90
2022-11-28T10:05:11.952Z,2.85
2022-11-28T10:07:39.247Z,3.88
2022-11-28T10:10:06.512Z,2.88
2022-11-28T10:12:33.696Z,3.05
2022-11-28T10:15:00.969Z,3.20
2022-11-28T10:17:28.502Z,3.25
2022-11-28T10:19:55.793Z,2.90
2022-11-28T10:22:23.117Z,4.05
2022-11-28T10:24:50.434Z,2.20
2022-11-28T10:27:20.125Z,3.00
2022-11-28T10:29:51.239Z,2.63
2022-11-28T10:32:18.401Z,2.60
2022-11-28T10:34:45.646Z,2.50
2022-11-28T10:37:12.796Z,2.83
2022-11-28T10:39:40.250Z,2.15
2022-11-28T10:42:14.404Z,2.13
2022-11-28T10:44:41.723Z,1.75
2022-11-28T10:47:08.924Z,1.85
2022-11-28T10:49:36.187Z,2.53
2022-11-28T10:52:03.384Z,2.22
2022-11-28T10:54:30.640Z,1.90
2022-11-28T10:56:58.291Z,3.03
2022-11-28T10:59:25.515Z,1.90
2022-11-28T11:01:52.768Z,1.77
2022-11-28T11:04:20.205Z,2.08
2022-11-28T11:07:06.947Z,1.60
2022-11-28T11:09:34.625Z,1.30
2022-11-28T11:12:01.784Z,2.50
2022-11-28T11:14:29.014Z,1.80
2022-11-28T11:16:56.923Z,2.10
2022-11-28T11:19:24.244Z,1.75
2022-11-28T11:21:51.458Z,1.90
2022-11-28T11:24:18.945Z,2.00
2022-11-28T11:26:46.099Z,1.98
2022-11-28T11:29:13.334Z,1.73
2022-11-28T11:31:40.623Z,2.58
2022-11-28T11:34:07.959Z,2.28
2022-11-28T11:36:35.413Z,2.28
2022-11-28T11:39:02.668Z,3.35
2022-11-28T11:41:29.937Z,1.95
2022-11-28T11:43:57.268Z,1.83
2022-11-28T11:46:24.661Z,1.67
2022-11-28T11:48:52.274Z,1.75
2022-11-28T11:51:19.431Z,1.40
2022-11-28T11:53:46.676Z,1.52
2022-11-28T11:56:13.942Z,1.70
2022-11-28T11:58:41.127Z,1.75
2022-11-28T12:01:08.533Z,1.48
2022-11-28T12:03:35.792Z,1.63
2022-11-28T12:06:18.359Z,1.80
2022-11-28T12:08:45.753Z,1.45
2022-11-28T12:11:12.909Z,2.55
2022-11-28T12:13:40.225Z,2.30
2022-11-28T12:16:07.632Z,1.48
2022-11-28T12:18:37.850Z,1.27
2022-11-28T12:21:05.243Z,1.90
2022-11-28T12:23:32.582Z,1.40
2022-11-28T12:25:59.890Z,1.42
2022-11-28T12:28:27.078Z,1.52
2022-11-28T12:30:54.432Z,1.83
2022-11-28T12:33:21.614Z,1.30
2022-11-28T12:35:48.879Z,1.13
2022-11-28T12:38:16.073Z,1.25
2022-11-28T12:40:43.422Z,1.38
2022-11-28T12:43:10.592Z,3.78
2022-11-28T12:45:39.106Z,1.50
2022-11-28T12:48:06.287Z,1.83
2022-11-28T12:50:34.412Z,1.83
2022-11-28T12:53:01.727Z,2.17
2022-11-28T12:55:28.946Z,1.23
2022-11-28T12:57:56.073Z,1.38
2022-11-28T13:00:23.420Z,2.13
2022-11-28T13:02:50.715Z,1.85
2022-11-28T13:05:17.963Z,2.45
2022-11-28T13:07:45.262Z,1.92
2022-11-28T13:10:12.482Z,2.38
2022-11-28T13:12:39.712Z,2.85
2022-11-28T13:15:07.377Z,2.70
2022-11-28T13:17:35.936Z,1.70
2022-11-28T13:20:03.559Z,1.60
2022-11-28T13:22:30.819Z,1.80
2022-11-28T13:25:00.842Z,2.10
2022-11-28T13:27:32.558Z,1.77
2022-11-28T13:29:59.742Z,2.17
2022-11-28T13:32:26.905Z,2.00
2022-11-28T13:34:54.246Z,2.38
2022-11-28T13:40:08.846Z,2.03
2022-11-28T13:43:02.453Z,2.45
2022-11-28T13:45:28.369Z,2.75
2022-11-28T13:48:00.365Z,2.63
2022-11-28T13:50:27.589Z,3.60
2022-11-28T13:52:54.812Z,3.40
2022-11-28T13:55:21.985Z,2.72
2022-11-28T13:57:49.695Z,2.22
2022-11-28T14:00:16.868Z,2.47
2022-11-28T14:02:45.440Z,2.20
2022-11-28T14:05:12.716Z,2.40
2022-11-28T14:07:39.967Z,2.60
2022-11-28T14:10:07.234Z,2.85
2022-11-28T14:12:34.687Z,2.78
2022-11-28T14:15:01.905Z,2.20
2022-11-28T14:17:29.170Z,2.35
2022-11-28T14:19:56.521Z,2.38
2022-11-28T14:22:24.431Z,2.40
2022-11-28T14:24:51.718Z,1.95
2022-11-28T14:27:19.408Z,2.53
2022-11-28T14:29:47.959Z,2.78
2022-11-28T14:32:29.826Z,2.20
2022-11-28T14:34:59.263Z,2.33
2022-11-28T14:37:28.525Z,2.92
2022-11-28T14:39:56.286Z,2.83
2022-11-28T14:42:58.376Z,2.47
2022-11-28T14:45:11.849Z,3.10
2022-11-28T14:47:42.743Z,3.05
2022-11-28T14:50:13.606Z,3.42
2022-11-28T14:52:41.420Z,3.90
2022-11-28T14:55:10.256Z,4.47
2022-11-28T14:57:37.547Z,6.60
2022-11-28T15:00:04.903Z,7.18
2022-11-28T15:02:35.370Z,6.55
2022-11-28T15:05:02.767Z,5.25
2022-11-28T15:07:30.082Z,4.63
2022-11-28T15:10:04.097Z,3.58
2022-11-28T15:12:34.394Z,3.17
2022-11-28T15:15:02.034Z,2.33
2022-11-28T15:17:30.641Z,2.67
2022-11-28T15:19:58.124Z,2.17
2022-11-28T15:22:25.307Z,1.88
2022-11-28T15:24:52.688Z,2.40
2022-11-28T15:27:19.911Z,1.80
2022-11-28T15:29:47.276Z,3.92
2022-11-28T15:32:14.441Z,4.97
2022-11-28T15:34:42.542Z,5.00
2022-11-28T15:37:10.052Z,5.25
2022-11-28T15:39:41.474Z,11.48
2022-11-28T15:42:09.074Z,11.30
2022-11-28T15:44:37.704Z,16.10
2022-11-28T15:47:05.256Z,15.43
2022-11-28T15:49:32.969Z,17.85
2022-11-28T15:52:00.593Z,21.30
2022-11-28T15:54:28.680Z,21.55
2022-11-28T15:56:56.124Z,21.30
2022-11-28T15:59:23.330Z,20.48
2022-11-28T16:01:53.550Z,21.90
2022-11-28T16:04:26.107Z,22.55
2022-11-28T16:06:53.269Z,24.65
2022-11-28T16:09:20.770Z,25.23
2022-11-28T16:11:48.235Z,24.67
2022-11-28T16:14:15.427Z,21.40
2022-11-28T16:16:42.967Z,20.48
2022-11-28T16:19:10.345Z,19.92
2022-11-28T16:21:37.622Z,18.23
2022-11-28T16:24:04.866Z,20.05
2022-11-28T16:26:32.003Z,16.67
2022-11-28T16:28:59.337Z,17.50
2022-11-28T16:31:26.605Z,13.98
2022-11-28T16:33:54.032Z,14.15
2022-11-28T16:36:21.163Z,13.55
2022-11-28T16:38:48.369Z,15.05
2022-11-28T16:41:15.939Z,14.07
2022-11-28T16:43:43.111Z,11.75
2022-11-28T16:46:12.145Z,11.40
2022-11-28T16:48:39.397Z,10.98
2022-11-28T16:51:07.468Z,11.90
2022-11-28T16:53:34.664Z,11.52
2022-11-28T16:56:02.038Z,11.75
2022-11-28T16:58:29.200Z,11.52
2022-11-28T17:00:56.400Z,12.18
2022-11-28T17:03:23.826Z,13.40
2022-11-28T17:05:51.085Z,12.18
2022-11-28T17:08:18.311Z,11.63
2022-11-28T17:10:46.348Z,11.02
2022-11-28T17:13:14.753Z,9.85
2022-11-28T17:15:42.083Z,8.75
2022-11-28T17:18:09.402Z,10.00
2022-11-28T17:20:36.666Z,7.85
2022-11-28T17:23:04.147Z,8.20
2022-11-28T17:25:31.293Z,7.55
2022-11-28T17:27:58.641Z,7.57
2022-11-28T17:30:25.816Z,6.07
2022-11-28T17:32:53.470Z,6.22
2022-11-28T17:35:20.595Z,6.47
2022-11-28T17:37:47.872Z,7.20
2022-11-28T17:40:33.594Z,8.75
2022-11-28T17:43:01.223Z,8.75
2022-11-28T17:45:28.428Z,7.00
2022-11-28T17:47:55.831Z,7.53
2022-11-28T17:50:22.999Z,6.60
2022-11-28T17:52:50.331Z,7.22
2022-11-28T17:55:20.653Z,7.10
2022-11-28T17:57:48.169Z,8.32
2022-11-28T18:00:15.435Z,7.50
2022-11-28T18:02:44.125Z,7.10
2022-11-28T18:05:11.444Z,8.98
2022-11-28T18:07:40.409Z,8.27
2022-11-28T18:10:11.353Z,7.72
2022-11-28T18:12:39.506Z,7.80
2022-11-28T18:15:08.140Z,8.77
2022-11-28T18:17:35.886Z,9.27
2022-11-28T18:20:03.727Z,8.82
2022-11-28T18:22:30.987Z,8.70
2022-11-28T18:24:58.387Z,13.65
2022-11-28T18:27:25.743Z,12.70
2022-11-28T18:29:53.074Z,12.07
2022-11-28T18:32:20.394Z,12.63
2022-11-28T18:34:47.580Z,12.13
2022-11-28T18:37:14.869Z,12.80
2022-11-28T18:39:42.732Z,11.32
2022-11-28T18:42:10.916Z,12.27
2022-11-28T18:44:38.262Z,12.43
2022-11-28T18:47:06.043Z,11.48
2022-11-28T18:49:33.258Z,11.32
2022-11-28T18:52:00.787Z,11.05
2022-11-28T18:54:31.222Z,11.15
2022-11-28T18:56:58.536Z,13.02
2022-11-28T18:59:25.829Z,9.82
2022-11-28T19:01:53.170Z,11.88
2022-11-28T19:04:20.398Z,10.70
2022-11-28T19:06:48.631Z,10.98
2022-11-28T19:09:15.875Z,10.65
2022-11-28T19:11:43.123Z,10.20
2022-11-28T19:14:10.799Z,11.05
2022-11-28T19:16:39.814Z,10.07
2022-11-28T19:19:09.348Z,9.70
2022-11-28T19:21:36.723Z,9.98
2022-11-28T19:24:04.015Z,10.52
2022-11-28T19:26:31.364Z,11.10
2022-11-28T19:29:00.281Z,10.65
2022-11-28T19:31:28.227Z,11.13
2022-11-28T19:34:00.481Z,9.10
2022-11-28T19:36:30.826Z,8.18
2022-11-28T19:38:58.035Z,8.63
2022-11-28T19:41:25.367Z,8.05
2022-11-28T19:43:52.937Z,8.35
2022-11-28T19:46:20.323Z,7.50
2022-11-28T19:48:51.229Z,7.20
2022-11-28T19:51:19.241Z,6.15
2022-11-28T19:53:46.675Z,6.40
2022-11-28T19:56:14.167Z,6.57
2022-11-28T19:58:41.575Z,7.25
2022-11-28T20:01:09.214Z,6.43
2022-11-28T20:03:36.487Z,5.85
2022-11-28T20:06:03.735Z,5.85
2022-11-28T20:08:31.091Z,6.93
2022-11-28T20:10:58.368Z,7.90
2022-11-28T20:13:25.533Z,10.60
2022-11-28T20:15:52.791Z,7.65
2022-11-28T20:18:20.076Z,7.82
2022-11-28T20:20:47.382Z,8.50
2022-11-28T20:23:14.731Z,7.97
2022-11-28T20:25:43.265Z,7.57
2022-11-28T20:28:10.897Z,9.18
2022-11-28T20:30:38.267Z,8.88
2022-11-28T20:33:05.461Z,10.00
2022-11-28T20:35:32.797Z,8.70
2022-11-28T20:38:00.415Z,10.38
2022-11-28T20:40:27.638Z,9.50
2022-11-28T20:42:54.840Z,9.05
2022-11-28T20:45:22.134Z,9.05
2022-11-28T20:47:50.087Z,11.50
2022-11-28T20:50:17.416Z,11.93
2022-11-28T20:52:44.704Z,10.68
2022-11-28T20:55:12.061Z,9.60
2022-11-28T20:57:39.261Z,9.95
2022-11-28T21:00:07.155Z,10.20
2022-11-28T21:02:34.421Z,9.15
2022-11-28T21:05:01.772Z,10.88
2022-11-28T21:07:31.690Z,10.75
2022-11-28T21:10:00.496Z,10.80
2022-11-28T21:12:27.716Z,9.95
2022-11-28T21:14:55.201Z,9.80
2022-11-28T21:17:22.399Z,12.52
2022-11-28T21:19:49.642Z,11.45
2022-11-28T21:22:16.998Z,11.98
2022-11-28T21:24:46.192Z,15.65
2022-11-28T21:27:13.420Z,15.20
2022-11-28T21:29:40.749Z,14.98
2022-11-28T21:32:08.185Z,12.18
2022-11-28T21:34:35.495Z,10.82
2022-11-28T21:37:02.915Z,11.30
2022-11-28T21:39:30.139Z,14.50
2022-11-28T21:41:57.292Z,15.95
2022-11-28T21:44:24.682Z,14.80
2022-11-28T21:46:51.940Z,14.18
2022-11-28T21:49:19.250Z,12.57
2022-11-28T21:51:46.461Z,13.25
2022-11-28T21:54:13.675Z,13.02
2022-11-28T21:56:41.211Z,14.95
2022-11-28T21:59:08.530Z,13.77
2022-11-28T22:01:36.128Z,12.32
2022-11-28T22:04:03.957Z,12.18
2022-11-28T22:06:31.713Z,12.43
2022-11-28T22:09:03.312Z,12.70
2022-11-28T22:11:34.609Z,12.93
2022-11-28T22:14:03.406Z,14.10
2022-11-28T22:16:30.753Z,12.13
2022-11-28T22:18:59.153Z,13.15
2022-11-28T22:24:14.120Z,13.60
2022-11-28T22:26:41.758Z,12.75
2022-11-28T22:29:09.040Z,13.40
2022-11-28T22:31:36.391Z,12.73
2022-11-28T22:34:03.870Z,12.65
2022-11-28T22:36:32.274Z,13.82
2022-11-28T22:38:59.602Z,13.30
2022-11-28T22:41:29.401Z,12.35
2022-11-28T22:43:59.656Z,12.57
2022-11-28T22:46:27.818Z,13.15
2022-11-28T22:48:55.199Z,13.85
2022-11-28T22:51:22.601Z,12.48
2022-11-28T22:53:49.876Z,13.77
2022-11-28T22:56:17.414Z,13.13
2022-11-28T22:58:44.671Z,12.85
2022-11-28T23:01:11.957Z,13.30
2022-11-28T23:03:39.240Z,13.90
2022-11-28T23:06:06.529Z,12.50
2022-11-28T23:08:33.860Z,14.10
2022-11-28T23:11:02.221Z,14.13
2022-11-28T23:13:30.024Z,13.93
2022-11-28T23:15:57.463Z,12.60
2022-11-28T23:18:24.686Z,13.85
2022-11-28T23:20:52.635Z,13.40
2022-11-28T23:23:19.844Z,12.60
2022-11-28T23:25:47.223Z,12.50
2022-11-28T23:28:14.941Z,13.05
2022-11-28T23:30:42.886Z,12.77
2022-11-28T23:33:10.132Z,12.70
2022-11-28T23:35:37.496Z,12.93
2022-11-28T23:38:04.795Z,13.55
2022-11-28T23:40:32.055Z,12.07
2022-11-28T23:42:59.242Z,14.15
2022-11-28T23:45:26.528Z,12.90
2022-11-28T23:47:53.713Z,13.40
2022-11-28T23:50:20.996Z,13.75
2022-11-28T23:52:48.201Z,13.02
2022-11-28T23:55:15.442Z,12.48
2022-11-28T23:57:42.652Z,13.10
